sensor_id;sensor_type;location;lat;lon;timestamp;P1;durP1;ratioP1;P2;durP2;ratioP2
39880;SDS011;25554;44.954;10.068;2024-03-08T00:02:37;17.95;;;9.15;;
39880;SDS011;25554;44.954;10.068;2024-03-08T00:05:08;12.50;;;8.77;;
39880;SDS011;25554;44.954;10.068;2024-03-08T00:07:35;16.58;;;9.60;;
39880;SDS011;25554;44.954;10.068;2024-03-08T00:10:05;14.32;;;8.43;;
39880;SDS011;25554;44.954;10.068;2024-03-08T00:12:39;14.77;;;8.82;;
39880;SDS011;25554;44.954;10.068;2024-03-08T00:15:10;14.20;;;9.10;;
39880;SDS011;25554;44.954;10.068;2024-03-08T00:17:43;17.77;;;9.93;;
39880;SDS011;25554;44.954;10.068;2024-03-08T00:20:10;15.82;;;9.40;;
39880;SDS011;25554;44.954;10.068;2024-03-08T00:22:37;16.60;;;9.45;;
39880;SDS011;25554;44.954;10.068;2024-03-08T00:25:04;17.10;;;10.07;;
39880;SDS011;25554;44.954;10.068;2024-03-08T00:27:31;18.45;;;11.05;;
39880;SDS011;25554;44.954;10.068;2024-03-08T00:29:57;20.17;;;11.57;;
39880;SDS011;25554;44.954;10.068;2024-03-08T00:32:25;17.33;;;11.65;;
39880;SDS011;25554;44.954;10.068;2024-03-08T00:34:53;21.63;;;11.57;;
39880;SDS011;25554;44.954;10.068;2024-03-08T00:37:20;20.58;;;11.23;;
39880;SDS011;25554;44.954;10.068;2024-03-08T00:39:50;20.58;;;12.18;;
39880;SDS011;25554;44.954;10.068;2024-03-08T00:42:18;20.33;;;13.38;;
39880;SDS011;25554;44.954;10.068;2024-03-08T00:44:45;20.15;;;13.60;;
39880;SDS011;25554;44.954;10.068;2024-03-08T00:47:12;20.90;;;12.95;;
39880;SDS011;25554;44.954;10.068;2024-03-08T00:52:06;22.67;;;11.70;;
39880;SDS011;25554;44.954;10.068;2024-03-08T00:54:36;24.90;;;13.20;;
39880;SDS011;25554;44.954;10.068;2024-03-08T00:57:03;22.77;;;12.52;;
39880;SDS011;25554;44.954;10.068;2024-03-08T00:59:30;21.77;;;12.45;;
39880;SDS011;25554;44.954;10.068;2024-03-08T01:01:59;24.50;;;12.57;;
39880;SDS011;25554;44.954;10.068;2024-03-08T01:04:28;19.85;;;12.98;;
39880;SDS011;25554;44.954;10.068;2024-03-08T01:06:57;21.30;;;12.10;;
39880;SDS011;25554;44.954;10.068;2024-03-08T01:09:24;21.02;;;12.50;;
39880;SDS011;25554;44.954;10.068;2024-03-08T01:11:55;22.85;;;13.27;;
39880;SDS011;25554;44.954;10.068;2024-03-08T01:14:22;23.23;;;13.07;;
39880;SDS011;25554;44.954;10.068;2024-03-08T01:16:49;21.83;;;13.48;;
39880;SDS011;25554;44.954;10.068;2024-03-08T01:19:16;23.20;;;12.68;;
39880;SDS011;25554;44.954;10.068;2024-03-08T01:21:43;19.45;;;12.00;;
39880;SDS011;25554;44.954;10.068;2024-03-08T01:24:09;20.60;;;11.48;;
39880;SDS011;25554;44.954;10.068;2024-03-08T01:26:35;21.02;;;11.68;;
39880;SDS011;25554;44.954;10.068;2024-03-08T01:29:02;17.13;;;11.40;;
39880;SDS011;25554;44.954;10.068;2024-03-08T01:31:29;20.20;;;11.77;;
39880;SDS011;25554;44.954;10.068;2024-03-08T01:33:56;21.63;;;11.93;;
39880;SDS011;25554;44.954;10.068;2024-03-08T01:36:23;18.38;;;10.68;;
39880;SDS011;25554;44.954;10.068;2024-03-08T01:38:50;20.75;;;11.55;;
39880;SDS011;25554;44.954;10.068;2024-03-08T01:41:17;18.55;;;10.73;;
39880;SDS011;25554;44.954;10.068;2024-03-08T01:46:11;21.63;;;11.50;;
39880;SDS011;25554;44.954;10.068;2024-03-08T01:48:41;20.48;;;11.30;;
39880;SDS011;25554;44.954;10.068;2024-03-08T01:51:08;20.17;;;12.00;;
39880;SDS011;25554;44.954;10.068;2024-03-08T01:53:37;18.55;;;11.25;;
39880;SDS011;25554;44.954;10.068;2024-03-08T01:56:04;19.85;;;10.75;;
39880;SDS011;25554;44.954;10.068;2024-03-08T01:58:32;21.45;;;10.93;;
39880;SDS011;25554;44.954;10.068;2024-03-08T02:00:58;23.42;;;11.75;;
39880;SDS011;25554;44.954;10.068;2024-03-08T02:03:25;19.58;;;10.63;;
39880;SDS011;25554;44.954;10.068;2024-03-08T02:05:52;22.13;;;11.23;;
39880;SDS011;25554;44.954;10.068;2024-03-08T02:08:18;22.13;;;11.90;;
39880;SDS011;25554;44.954;10.068;2024-03-08T02:10:48;23.60;;;11.75;;
39880;SDS011;25554;44.954;10.068;2024-03-08T02:13:15;22.50;;;11.95;;
39880;SDS011;25554;44.954;10.068;2024-03-08T02:15:51;22.48;;;12.20;;
39880;SDS011;25554;44.954;10.068;2024-03-08T02:18:21;23.77;;;11.93;;
39880;SDS011;25554;44.954;10.068;2024-03-08T02:23:22;20.42;;;11.68;;
39880;SDS011;25554;44.954;10.068;2024-03-08T02:25:52;25.58;;;12.93;;
39880;SDS011;25554;44.954;10.068;2024-03-08T02:28:19;23.45;;;12.05;;
39880;SDS011;25554;44.954;10.068;2024-03-08T02:30:46;19.83;;;11.02;;
39880;SDS011;25554;44.954;10.068;2024-03-08T02:33:13;23.63;;;12.65;;
39880;SDS011;25554;44.954;10.068;2024-03-08T02:35:47;24.48;;;12.52;;
39880;SDS011;25554;44.954;10.068;2024-03-08T02:38:14;20.88;;;11.45;;
39880;SDS011;25554;44.954;10.068;2024-03-08T02:40:45;20.20;;;10.85;;
39880;SDS011;25554;44.954;10.068;2024-03-08T02:43:12;22.48;;;11.95;;
39880;SDS011;25554;44.954;10.068;2024-03-08T02:45:40;19.40;;;10.57;;
39880;SDS011;25554;44.954;10.068;2024-03-08T02:48:11;17.08;;;9.88;;
39880;SDS011;25554;44.954;10.068;2024-03-08T02:50:38;16.48;;;10.23;;
39880;SDS011;25554;44.954;10.068;2024-03-08T02:53:10;17.30;;;10.10;;
39880;SDS011;25554;44.954;10.068;2024-03-08T02:55:41;19.17;;;10.55;;
39880;SDS011;25554;44.954;10.068;2024-03-08T02:58:07;18.30;;;11.50;;
39880;SDS011;25554;44.954;10.068;2024-03-08T03:00:38;16.83;;;9.95;;
39880;SDS011;25554;44.954;10.068;2024-03-08T03:03:06;17.10;;;10.52;;
39880;SDS011;25554;44.954;10.068;2024-03-08T03:05:33;20.30;;;11.80;;
39880;SDS011;25554;44.954;10.068;2024-03-08T03:07:59;16.58;;;9.32;;
39880;SDS011;25554;44.954;10.068;2024-03-08T03:10:25;17.88;;;10.45;;
39880;SDS011;25554;44.954;10.068;2024-03-08T03:12:52;16.83;;;10.15;;
39880;SDS011;25554;44.954;10.068;2024-03-08T03:15:18;15.48;;;9.57;;
39880;SDS011;25554;44.954;10.068;2024-03-08T03:17:48;15.45;;;9.55;;
39880;SDS011;25554;44.954;10.068;2024-03-08T03:20:17;17.83;;;9.43;;
39880;SDS011;25554;44.954;10.068;2024-03-08T03:22:51;14.45;;;9.68;;
39880;SDS011;25554;44.954;10.068;2024-03-08T03:25:18;12.25;;;8.25;;
39880;SDS011;25554;44.954;10.068;2024-03-08T03:27:53;13.75;;;8.57;;
39880;SDS011;25554;44.954;10.068;2024-03-08T03:30:22;15.48;;;9.43;;
39880;SDS011;25554;44.954;10.068;2024-03-08T03:32:52;14.73;;;9.35;;
39880;SDS011;25554;44.954;10.068;2024-03-08T03:35:22;16.08;;;9.15;;
39880;SDS011;25554;44.954;10.068;2024-03-08T03:37:48;14.73;;;8.20;;
39880;SDS011;25554;44.954;10.068;2024-03-08T03:40:28;14.73;;;8.52;;
39880;SDS011;25554;44.954;10.068;2024-03-08T03:42:55;13.32;;;9.52;;
39880;SDS011;25554;44.954;10.068;2024-03-08T03:45:22;15.93;;;9.35;;
39880;SDS011;25554;44.954;10.068;2024-03-08T03:47:48;15.90;;;8.20;;
39880;SDS011;25554;44.954;10.068;2024-03-08T03:50:15;13.50;;;7.88;;
39880;SDS011;25554;44.954;10.068;2024-03-08T03:52:42;11.90;;;7.60;;
39880;SDS011;25554;44.954;10.068;2024-03-08T03:55:08;11.45;;;7.82;;
39880;SDS011;25554;44.954;10.068;2024-03-08T03:57:36;11.70;;;7.50;;
39880;SDS011;25554;44.954;10.068;2024-03-08T04:00:03;15.20;;;8.00;;
39880;SDS011;25554;44.954;10.068;2024-03-08T04:02:38;10.05;;;6.85;;
39880;SDS011;25554;44.954;10.068;2024-03-08T04:05:05;18.30;;;7.40;;
39880;SDS011;25554;44.954;10.068;2024-03-08T04:07:33;10.38;;;7.10;;
39880;SDS011;25554;44.954;10.068;2024-03-08T04:10:03;10.93;;;7.22;;
39880;SDS011;25554;44.954;10.068;2024-03-08T04:12:32;10.35;;;6.70;;
39880;SDS011;25554;44.954;10.068;2024-03-08T04:14:59;10.13;;;6.22;;
39880;SDS011;25554;44.954;10.068;2024-03-08T04:19:51;12.95;;;5.85;;
39880;SDS011;25554;44.954;10.068;2024-03-08T04:22:18;7.13;;;5.47;;
39880;SDS011;25554;44.954;10.068;2024-03-08T04:24:45;7.82;;;5.88;;
39880;SDS011;25554;44.954;10.068;2024-03-08T04:27:12;9.82;;;5.93;;
39880;SDS011;25554;44.954;10.068;2024-03-08T04:29:40;10.30;;;6.25;;
39880;SDS011;25554;44.954;10.068;2024-03-08T04:32:07;9.80;;;6.00;;
39880;SDS011;25554;44.954;10.068;2024-03-08T04:34:35;9.18;;;5.85;;
39880;SDS011;25554;44.954;10.068;2024-03-08T04:37:02;12.48;;;6.32;;
39880;SDS011;25554;44.954;10.068;2024-03-08T04:39:30;13.52;;;6.10;;
39880;SDS011;25554;44.954;10.068;2024-03-08T04:41:58;11.60;;;6.35;;
39880;SDS011;25554;44.954;10.068;2024-03-08T04:44:29;12.52;;;6.95;;
39880;SDS011;25554;44.954;10.068;2024-03-08T04:46:56;12.07;;;7.10;;
39880;SDS011;25554;44.954;10.068;2024-03-08T04:49:22;13.45;;;7.72;;
39880;SDS011;25554;44.954;10.068;2024-03-08T04:51:48;14.07;;;8.63;;
39880;SDS011;25554;44.954;10.068;2024-03-08T04:54:15;11.93;;;7.25;;
39880;SDS011;25554;44.954;10.068;2024-03-08T04:56:41;15.07;;;8.32;;
39880;SDS011;25554;44.954;10.068;2024-03-08T04:59:07;14.05;;;8.50;;
39880;SDS011;25554;44.954;10.068;2024-03-08T05:04:03;22.27;;;9.50;;
39880;SDS011;25554;44.954;10.068;2024-03-08T05:06:31;16.25;;;9.40;;
39880;SDS011;25554;44.954;10.068;2024-03-08T05:08:57;17.73;;;10.32;;
39880;SDS011;25554;44.954;10.068;2024-03-08T05:11:23;18.88;;;10.93;;
39880;SDS011;25554;44.954;10.068;2024-03-08T05:13:50;21.65;;;12.02;;
39880;SDS011;25554;44.954;10.068;2024-03-08T05:16:16;26.05;;;13.27;;
39880;SDS011;25554;44.954;10.068;2024-03-08T05:18:42;29.15;;;14.65;;
39880;SDS011;25554;44.954;10.068;2024-03-08T05:21:08;29.40;;;15.27;;
39880;SDS011;25554;44.954;10.068;2024-03-08T05:23:35;30.45;;;15.98;;
39880;SDS011;25554;44.954;10.068;2024-03-08T05:26:01;31.95;;;16.35;;
39880;SDS011;25554;44.954;10.068;2024-03-08T05:28:27;34.97;;;17.08;;
39880;SDS011;25554;44.954;10.068;2024-03-08T05:30:53;29.55;;;16.05;;
39880;SDS011;25554;44.954;10.068;2024-03-08T05:33:22;30.70;;;16.15;;
39880;SDS011;25554;44.954;10.068;2024-03-08T05:35:49;33.15;;;17.08;;
39880;SDS011;25554;44.954;10.068;2024-03-08T05:38:15;36.45;;;17.90;;
39880;SDS011;25554;44.954;10.068;2024-03-08T05:40:41;35.13;;;18.88;;
39880;SDS011;25554;44.954;10.068;2024-03-08T05:43:08;34.90;;;17.30;;
39880;SDS011;25554;44.954;10.068;2024-03-08T05:45:35;34.42;;;17.73;;
39880;SDS011;25554;44.954;10.068;2024-03-08T05:48:01;33.13;;;18.42;;
39880;SDS011;25554;44.954;10.068;2024-03-08T05:50:27;34.05;;;17.65;;
39880;SDS011;25554;44.954;10.068;2024-03-08T05:52:53;36.20;;;17.85;;
39880;SDS011;25554;44.954;10.068;2024-03-08T05:55:20;37.72;;;17.15;;
39880;SDS011;25554;44.954;10.068;2024-03-08T05:57:48;36.92;;;18.35;;
39880;SDS011;25554;44.954;10.068;2024-03-08T06:00:14;37.42;;;18.05;;
39880;SDS011;25554;44.954;10.068;2024-03-08T06:02:41;35.03;;;17.10;;
39880;SDS011;25554;44.954;10.068;2024-03-08T06:05:11;43.42;;;18.40;;
39880;SDS011;25554;44.954;10.068;2024-03-08T06:07:37;39.63;;;19.17;;
39880;SDS011;25554;44.954;10.068;2024-03-08T06:10:09;40.05;;;19.52;;
39880;SDS011;25554;44.954;10.068;2024-03-08T06:12:38;42.33;;;18.70;;
39880;SDS011;25554;44.954;10.068;2024-03-08T06:15:07;34.80;;;16.85;;
39880;SDS011;25554;44.954;10.068;2024-03-08T06:17:38;35.03;;;18.00;;
39880;SDS011;25554;44.954;10.068;2024-03-08T06:20:04;41.38;;;19.65;;
39880;SDS011;25554;44.954;10.068;2024-03-08T06:22:39;38.78;;;17.83;;
39880;SDS011;25554;44.954;10.068;2024-03-08T06:25:07;41.28;;;18.85;;
39880;SDS011;25554;44.954;10.068;2024-03-08T06:27:34;36.65;;;16.70;;
39880;SDS011;25554;44.954;10.068;2024-03-08T06:30:00;43.35;;;18.88;;
39880;SDS011;25554;44.954;10.068;2024-03-08T06:32:27;41.40;;;18.80;;
39880;SDS011;25554;44.954;10.068;2024-03-08T06:34:53;41.30;;;18.35;;
39880;SDS011;25554;44.954;10.068;2024-03-08T06:37:20;39.17;;;19.35;;
39880;SDS011;25554;44.954;10.068;2024-03-08T06:39:47;34.13;;;18.35;;
39880;SDS011;25554;44.954;10.068;2024-03-08T06:42:14;38.85;;;18.48;;
39880;SDS011;25554;44.954;10.068;2024-03-08T06:44:40;40.75;;;19.73;;
39880;SDS011;25554;44.954;10.068;2024-03-08T06:47:14;41.58;;;19.33;;
39880;SDS011;25554;44.954;10.068;2024-03-08T06:49:42;46.10;;;20.30;;
39880;SDS011;25554;44.954;10.068;2024-03-08T06:52:12;43.45;;;19.88;;
39880;SDS011;25554;44.954;10.068;2024-03-08T06:54:38;50.03;;;21.00;;
39880;SDS011;25554;44.954;10.068;2024-03-08T06:57:04;44.65;;;20.50;;
39880;SDS011;25554;44.954;10.068;2024-03-08T06:59:31;45.70;;;20.63;;
39880;SDS011;25554;44.954;10.068;2024-03-08T07:01:58;54.33;;;22.98;;
39880;SDS011;25554;44.954;10.068;2024-03-08T07:04:27;46.33;;;19.85;;
39880;SDS011;25554;44.954;10.068;2024-03-08T07:06:55;43.05;;;20.00;;
39880;SDS011;25554;44.954;10.068;2024-03-08T07:09:23;45.47;;;18.98;;
39880;SDS011;25554;44.954;10.068;2024-03-08T07:11:50;42.65;;;19.92;;
39880;SDS011;25554;44.954;10.068;2024-03-08T07:14:23;45.05;;;21.83;;
39880;SDS011;25554;44.954;10.068;2024-03-08T07:16:50;45.30;;;20.60;;
39880;SDS011;25554;44.954;10.068;2024-03-08T07:19:19;42.92;;;20.08;;
39880;SDS011;25554;44.954;10.068;2024-03-08T07:21:47;43.00;;;19.67;;
39880;SDS011;25554;44.954;10.068;2024-03-08T07:24:13;39.83;;;19.77;;
39880;SDS011;25554;44.954;10.068;2024-03-08T07:26:43;41.45;;;19.58;;
39880;SDS011;25554;44.954;10.068;2024-03-08T07:29:09;44.70;;;20.00;;
39880;SDS011;25554;44.954;10.068;2024-03-08T07:31:36;40.58;;;18.92;;
39880;SDS011;25554;44.954;10.068;2024-03-08T07:34:31;42.10;;;19.83;;
39880;SDS011;25554;44.954;10.068;2024-03-08T07:36:59;41.53;;;20.45;;
39880;SDS011;25554;44.954;10.068;2024-03-08T07:39:25;38.03;;;18.85;;
39880;SDS011;25554;44.954;10.068;2024-03-08T07:41:52;39.92;;;19.08;;
39880;SDS011;25554;44.954;10.068;2024-03-08T07:44:18;41.35;;;20.25;;
39880;SDS011;25554;44.954;10.068;2024-03-08T07:46:45;45.60;;;19.58;;
39880;SDS011;25554;44.954;10.068;2024-03-08T07:49:11;37.05;;;18.25;;
39880;SDS011;25554;44.954;10.068;2024-03-08T07:51:38;43.05;;;18.90;;
39880;SDS011;25554;44.954;10.068;2024-03-08T07:54:04;34.70;;;17.90;;
39880;SDS011;25554;44.954;10.068;2024-03-08T07:58:56;33.35;;;15.70;;
39880;SDS011;25554;44.954;10.068;2024-03-08T08:01:23;35.50;;;16.08;;
39880;SDS011;25554;44.954;10.068;2024-03-08T08:03:49;35.00;;;16.15;;
39880;SDS011;25554;44.954;10.068;2024-03-08T08:08:43;32.60;;;14.57;;
39880;SDS011;25554;44.954;10.068;2024-03-08T08:11:10;28.48;;;14.13;;
39880;SDS011;25554;44.954;10.068;2024-03-08T08:13:42;23.98;;;12.73;;
39880;SDS011;25554;44.954;10.068;2024-03-08T08:16:09;23.40;;;12.63;;
39880;SDS011;25554;44.954;10.068;2024-03-08T08:18:39;26.55;;;13.95;;
39880;SDS011;25554;44.954;10.068;2024-03-08T08:21:06;26.05;;;13.68;;
39880;SDS011;25554;44.954;10.068;2024-03-08T08:23:32;27.00;;;13.05;;
39880;SDS011;25554;44.954;10.068;2024-03-08T08:25:59;23.27;;;12.65;;
39880;SDS011;25554;44.954;10.068;2024-03-08T08:30:51;22.27;;;11.93;;
39880;SDS011;25554;44.954;10.068;2024-03-08T08:33:17;22.85;;;12.05;;
39880;SDS011;25554;44.954;10.068;2024-03-08T08:35:43;25.73;;;12.95;;
39880;SDS011;25554;44.954;10.068;2024-03-08T08:38:10;22.60;;;13.70;;
39880;SDS011;25554;44.954;10.068;2024-03-08T08:40:37;23.33;;;12.55;;
39880;SDS011;25554;44.954;10.068;2024-03-08T08:43:03;31.67;;;13.30;;
39880;SDS011;25554;44.954;10.068;2024-03-08T08:45:33;24.90;;;12.73;;
39880;SDS011;25554;44.954;10.068;2024-03-08T08:47:59;20.27;;;12.05;;
39880;SDS011;25554;44.954;10.068;2024-03-08T08:52:54;23.13;;;11.90;;
39880;SDS011;25554;44.954;10.068;2024-03-08T08:55:21;25.52;;;12.88;;
39880;SDS011;25554;44.954;10.068;2024-03-08T08:57:51;18.77;;;10.45;;
39880;SDS011;25554;44.954;10.068;2024-03-08T09:00:21;24.83;;;11.75;;
39880;SDS011;25554;44.954;10.068;2024-03-08T09:02:49;21.05;;;11.88;;
39880;SDS011;25554;44.954;10.068;2024-03-08T09:05:16;22.05;;;12.95;;
39880;SDS011;25554;44.954;10.068;2024-03-08T09:07:46;16.52;;;10.43;;
39880;SDS011;25554;44.954;10.068;2024-03-08T09:10:12;20.08;;;10.75;;
39880;SDS011;25554;44.954;10.068;2024-03-08T09:12:40;18.60;;;10.75;;
39880;SDS011;25554;44.954;10.068;2024-03-08T09:17:37;16.65;;;10.00;;
39880;SDS011;25554;44.954;10.068;2024-03-08T09:20:06;19.13;;;11.32;;
39880;SDS011;25554;44.954;10.068;2024-03-08T09:22:34;23.60;;;11.43;;
39880;SDS011;25554;44.954;10.068;2024-03-08T09:25:00;18.50;;;10.98;;
39880;SDS011;25554;44.954;10.068;2024-03-08T09:27:27;18.88;;;10.95;;
39880;SDS011;25554;44.954;10.068;2024-03-08T09:29:54;17.23;;;10.48;;
39880;SDS011;25554;44.954;10.068;2024-03-08T09:37:14;16.88;;;9.68;;
39880;SDS011;25554;44.954;10.068;2024-03-08T09:39:40;20.25;;;10.38;;
39880;SDS011;25554;44.954;10.068;2024-03-08T09:42:07;16.40;;;9.98;;
39880;SDS011;25554;44.954;10.068;2024-03-08T09:44:33;17.10;;;10.20;;
39880;SDS011;25554;44.954;10.068;2024-03-08T09:47:00;16.25;;;10.60;;
39880;SDS011;25554;44.954;10.068;2024-03-08T09:49:29;18.52;;;9.63;;
39880;SDS011;25554;44.954;10.068;2024-03-08T09:51:56;17.13;;;10.90;;
39880;SDS011;25554;44.954;10.068;2024-03-08T09:56:51;20.25;;;11.80;;
39880;SDS011;25554;44.954;10.068;2024-03-08T09:59:17;21.52;;;11.45;;
39880;SDS011;25554;44.954;10.068;2024-03-08T10:01:52;17.58;;;9.63;;
39880;SDS011;25554;44.954;10.068;2024-03-08T10:04:23;17.52;;;10.50;;
39880;SDS011;25554;44.954;10.068;2024-03-08T10:06:49;15.73;;;9.32;;
39880;SDS011;25554;44.954;10.068;2024-03-08T10:09:15;14.55;;;10.02;;
39880;SDS011;25554;44.954;10.068;2024-03-08T10:14:09;13.80;;;9.13;;
39880;SDS011;25554;44.954;10.068;2024-03-08T10:16:37;13.88;;;8.13;;
39880;SDS011;25554;44.954;10.068;2024-03-08T10:19:05;15.27;;;9.60;;
39880;SDS011;25554;44.954;10.068;2024-03-08T10:21:31;16.38;;;9.73;;
39880;SDS011;25554;44.954;10.068;2024-03-08T10:23:58;12.35;;;8.38;;
39880;SDS011;25554;44.954;10.068;2024-03-08T10:26:25;15.15;;;9.52;;
39880;SDS011;25554;44.954;10.068;2024-03-08T10:28:52;14.95;;;9.15;;
39880;SDS011;25554;44.954;10.068;2024-03-08T10:31:19;16.15;;;9.63;;
39880;SDS011;25554;44.954;10.068;2024-03-08T10:33:46;15.05;;;9.63;;
39880;SDS011;25554;44.954;10.068;2024-03-08T10:38:40;18.60;;;8.82;;
39880;SDS011;25554;44.954;10.068;2024-03-08T10:41:09;15.70;;;9.18;;
39880;SDS011;25554;44.954;10.068;2024-03-08T10:46:21;17.75;;;9.93;;
39880;SDS011;25554;44.954;10.068;2024-03-08T10:49:12;15.68;;;9.52;;
39880;SDS011;25554;44.954;10.068;2024-03-08T10:51:44;18.52;;;9.45;;
39880;SDS011;25554;44.954;10.068;2024-03-08T10:54:11;16.55;;;9.98;;
39880;SDS011;25554;44.954;10.068;2024-03-08T10:56:38;17.92;;;9.57;;
39880;SDS011;25554;44.954;10.068;2024-03-08T10:59:07;18.23;;;9.77;;
39880;SDS011;25554;44.954;10.068;2024-03-08T11:01:34;18.60;;;9.98;;
39880;SDS011;25554;44.954;10.068;2024-03-08T11:04:00;18.33;;;10.70;;
39880;SDS011;25554;44.954;10.068;2024-03-08T11:06:41;16.00;;;8.77;;
39880;SDS011;25554;44.954;10.068;2024-03-08T11:09:11;16.15;;;9.77;;
39880;SDS011;25554;44.954;10.068;2024-03-08T11:14:55;15.82;;;8.65;;
39880;SDS011;25554;44.954;10.068;2024-03-08T11:19:58;18.75;;;9.38;;
39880;SDS011;25554;44.954;10.068;2024-03-08T11:22:27;17.17;;;8.55;;
39880;SDS011;25554;44.954;10.068;2024-03-08T11:25:01;17.50;;;9.75;;
39880;SDS011;25554;44.954;10.068;2024-03-08T11:27:31;17.58;;;10.55;;
39880;SDS011;25554;44.954;10.068;2024-03-08T11:30:05;21.25;;;11.10;;
39880;SDS011;25554;44.954;10.068;2024-03-08T11:32:48;15.75;;;10.30;;
39880;SDS011;25554;44.954;10.068;2024-03-08T11:35:19;15.23;;;9.23;;
39880;SDS011;25554;44.954;10.068;2024-03-08T11:37:51;20.05;;;10.23;;
39880;SDS011;25554;44.954;10.068;2024-03-08T11:40:17;18.52;;;10.85;;
39880;SDS011;25554;44.954;10.068;2024-03-08T11:42:45;15.93;;;10.10;;
39880;SDS011;25554;44.954;10.068;2024-03-08T11:45:14;16.90;;;10.82;;
39880;SDS011;25554;44.954;10.068;2024-03-08T11:47:44;15.95;;;10.00;;
39880;SDS011;25554;44.954;10.068;2024-03-08T11:50:14;18.80;;;10.13;;
39880;SDS011;25554;44.954;10.068;2024-03-08T11:52:41;14.52;;;9.38;;
39880;SDS011;25554;44.954;10.068;2024-03-08T11:55:08;19.15;;;9.77;;
39880;SDS011;25554;44.954;10.068;2024-03-08T11:57:38;16.10;;;10.18;;
39880;SDS011;25554;44.954;10.068;2024-03-08T12:00:04;22.10;;;10.02;;
39880;SDS011;25554;44.954;10.068;2024-03-08T12:02:33;16.00;;;9.93;;
39880;SDS011;25554;44.954;10.068;2024-03-08T12:05:06;14.63;;;9.38;;
39880;SDS011;25554;44.954;10.068;2024-03-08T12:07:35;18.23;;;10.07;;
39880;SDS011;25554;44.954;10.068;2024-03-08T12:10:14;14.27;;;8.60;;
39880;SDS011;25554;44.954;10.068;2024-03-08T12:12:46;15.55;;;9.48;;
39880;SDS011;25554;44.954;10.068;2024-03-08T12:15:17;16.80;;;9.75;;
39880;SDS011;25554;44.954;10.068;2024-03-08T12:17:45;15.93;;;9.23;;
39880;SDS011;25554;44.954;10.068;2024-03-08T12:20:20;15.25;;;9.02;;
39880;SDS011;25554;44.954;10.068;2024-03-08T12:22:52;16.27;;;9.07;;
39880;SDS011;25554;44.954;10.068;2024-03-08T12:25:19;18.63;;;10.07;;
39880;SDS011;25554;44.954;10.068;2024-03-08T12:27:53;23.92;;;10.32;;
39880;SDS011;25554;44.954;10.068;2024-03-08T12:30:22;19.73;;;9.93;;
39880;SDS011;25554;44.954;10.068;2024-03-08T12:32:56;11.98;;;7.60;;
39880;SDS011;25554;44.954;10.068;2024-03-08T12:35:24;13.13;;;7.72;;
39880;SDS011;25554;44.954;10.068;2024-03-08T12:37:56;10.25;;;7.18;;
39880;SDS011;25554;44.954;10.068;2024-03-08T12:40:30;11.32;;;7.07;;
39880;SDS011;25554;44.954;10.068;2024-03-08T12:43:01;12.80;;;7.82;;
39880;SDS011;25554;44.954;10.068;2024-03-08T12:45:28;11.65;;;8.27;;
39880;SDS011;25554;44.954;10.068;2024-03-08T12:47:55;12.05;;;8.23;;
39880;SDS011;25554;44.954;10.068;2024-03-08T12:50:22;12.05;;;8.60;;
39880;SDS011;25554;44.954;10.068;2024-03-08T12:52:50;12.63;;;8.05;;
39880;SDS011;25554;44.954;10.068;2024-03-08T12:55:18;12.25;;;8.00;;
39880;SDS011;25554;44.954;10.068;2024-03-08T13:00:12;10.88;;;7.57;;
39880;SDS011;25554;44.954;10.068;2024-03-08T13:02:45;13.02;;;7.57;;
39880;SDS011;25554;44.954;10.068;2024-03-08T13:05:12;15.23;;;8.00;;
39880;SDS011;25554;44.954;10.068;2024-03-08T13:07:40;13.32;;;8.38;;
39880;SDS011;25554;44.954;10.068;2024-03-08T13:10:12;12.15;;;7.80;;
39880;SDS011;25554;44.954;10.068;2024-03-08T13:12:43;12.98;;;8.10;;
39880;SDS011;25554;44.954;10.068;2024-03-08T13:15:10;11.88;;;8.10;;
39880;SDS011;25554;44.954;10.068;2024-03-08T13:17:48;12.55;;;7.40;;
39880;SDS011;25554;44.954;10.068;2024-03-08T13:20:15;15.43;;;8.55;;
39880;SDS011;25554;44.954;10.068;2024-03-08T13:22:43;13.55;;;7.43;;
39880;SDS011;25554;44.954;10.068;2024-03-08T13:25:09;11.20;;;8.10;;
39880;SDS011;25554;44.954;10.068;2024-03-08T13:27:39;14.77;;;8.70;;
39880;SDS011;25554;44.954;10.068;2024-03-08T13:30:08;12.13;;;8.43;;
39880;SDS011;25554;44.954;10.068;2024-03-08T13:32:40;11.75;;;7.95;;
39880;SDS011;25554;44.954;10.068;2024-03-08T13:35:09;11.38;;;7.97;;
39880;SDS011;25554;44.954;10.068;2024-03-08T13:37:41;9.52;;;7.05;;
39880;SDS011;25554;44.954;10.068;2024-03-08T13:40:08;11.77;;;7.78;;
39880;SDS011;25554;44.954;10.068;2024-03-08T13:42:37;11.93;;;7.85;;
39880;SDS011;25554;44.954;10.068;2024-03-08T13:45:05;10.70;;;7.65;;
39880;SDS011;25554;44.954;10.068;2024-03-08T13:47:34;12.75;;;7.78;;
39880;SDS011;25554;44.954;10.068;2024-03-08T13:50:01;11.70;;;8.07;;
39880;SDS011;25554;44.954;10.068;2024-03-08T13:52:27;13.75;;;8.60;;
39880;SDS011;25554;44.954;10.068;2024-03-08T13:54:55;12.88;;;9.00;;
39880;SDS011;25554;44.954;10.068;2024-03-08T13:57:21;15.88;;;8.52;;
39880;SDS011;25554;44.954;10.068;2024-03-08T13:59:50;11.38;;;8.13;;
39880;SDS011;25554;44.954;10.068;2024-03-08T14:02:17;13.20;;;8.85;;
39880;SDS011;25554;44.954;10.068;2024-03-08T14:04:43;13.50;;;8.20;;
39880;SDS011;25554;44.954;10.068;2024-03-08T14:07:09;13.98;;;8.38;;
39880;SDS011;25554;44.954;10.068;2024-03-08T14:09:37;12.82;;;8.60;;
39880;SDS011;25554;44.954;10.068;2024-03-08T14:12:08;12.27;;;8.35;;
39880;SDS011;25554;44.954;10.068;2024-03-08T14:14:35;13.43;;;8.35;;
39880;SDS011;25554;44.954;10.068;2024-03-08T14:17:01;14.55;;;8.85;;
39880;SDS011;25554;44.954;10.068;2024-03-08T14:19:29;12.27;;;8.25;;
39880;SDS011;25554;44.954;10.068;2024-03-08T14:22:04;13.30;;;9.05;;
39880;SDS011;25554;44.954;10.068;2024-03-08T14:24:31;13.23;;;8.45;;
39880;SDS011;25554;44.954;10.068;2024-03-08T14:27:01;14.35;;;8.60;;
39880;SDS011;25554;44.954;10.068;2024-03-08T14:29:28;12.70;;;8.43;;
39880;SDS011;25554;44.954;10.068;2024-03-08T14:31:58;14.90;;;8.43;;
39880;SDS011;25554;44.954;10.068;2024-03-08T14:34:25;15.93;;;9.15;;
39880;SDS011;25554;44.954;10.068;2024-03-08T14:36:55;15.95;;;9.20;;
39880;SDS011;25554;44.954;10.068;2024-03-08T14:39:21;14.00;;;8.50;;
39880;SDS011;25554;44.954;10.068;2024-03-08T14:41:52;13.23;;;8.40;;
39880;SDS011;25554;44.954;10.068;2024-03-08T14:44:20;12.73;;;8.85;;
39880;SDS011;25554;44.954;10.068;2024-03-08T14:46:51;17.25;;;9.73;;
39880;SDS011;25554;44.954;10.068;2024-03-08T14:49:18;14.48;;;9.27;;
39880;SDS011;25554;44.954;10.068;2024-03-08T14:51:45;13.05;;;9.05;;
39880;SDS011;25554;44.954;10.068;2024-03-08T14:54:11;13.57;;;8.30;;
39880;SDS011;25554;44.954;10.068;2024-03-08T14:56:38;15.40;;;9.18;;
39880;SDS011;25554;44.954;10.068;2024-03-08T14:59:08;13.20;;;8.30;;
39880;SDS011;25554;44.954;10.068;2024-03-08T15:01:35;12.98;;;9.05;;
39880;SDS011;25554;44.954;10.068;2024-03-08T15:04:02;17.23;;;9.25;;
39880;SDS011;25554;44.954;10.068;2024-03-08T15:06:35;13.55;;;8.43;;
39880;SDS011;25554;44.954;10.068;2024-03-08T15:09:03;16.50;;;8.90;;
39880;SDS011;25554;44.954;10.068;2024-03-08T15:11:40;12.70;;;8.52;;